Time;durP1;ratioP1;P1;durP2;ratioP2;P2;SDS_P1;SDS_P2;PMS_P1;PMS_P2;Temp;Humidity;BMP_temperature;BMP_pressure;BME280_temperature;BME280_humidity;BME280_pressure;Samples;Min_cycle;Max_cycle;Signal;HPM_P1;HPM_P2
2022/09/09 00:02:03;;;;;;;0.45;0.45;;;;;21.90;100598.00;;;;5086733;28;20198;-79
2022/09/09 00:04:32;;;;;;;0.95;0.50;;;;;22.00;100593.00;;;;5087414;28;20206;-79
2022/09/09 00:07:07;;;;;;;0.98;0.40;;;;;21.90;100588.00;;;;5086424;28;20194;-79
2022/09/09 00:09:45;;;;;;;1.20;0.38;;;;;21.90;100587.00;;;;5086330;28;20194;-79
2022/09/09 00:12:15;;;;;;;0.63;0.43;;;;;22.00;100586.00;;;;5086329;28;20198;-79
2022/09/09 00:14:50;;;;;;;1.98;0.80;;;;;21.90;100579.00;;;;5085705;28;20198;-79
2022/09/09 00:17:33;;;;;;;1.25;0.65;;;;;21.90;100577.00;;;;5087852;28;20200;-79
2022/09/09 00:20:10;;;;;;;1.70;0.75;;;;;21.90;100588.00;;;;5078408;28;20210;-80
2022/09/09 00:22:39;;;;;;;0.63;0.50;;;;;21.90;100581.00;;;;5085572;28;20241;-80
2022/09/09 00:25:16;;;;;;;2.45;0.50;;;;;21.80;100588.00;;;;5085224;28;20194;-80
2022/09/09 00:27:47;;;;;;;0.57;0.43;;;;;21.90;100583.00;;;;5087513;28;20201;-80
2022/09/09 00:30:19;;;;;;;2.45;0.98;;;;;21.90;100579.00;;;;5086839;28;20241;-80
2022/09/09 00:32:47;;;;;;;0.80;0.50;;;;;21.90;100583.00;;;;5085432;28;20584;-80
2022/09/09 00:35:23;;;;;;;1.02;0.80;;;;;21.80;100580.00;;;;5087566;28;20226;-80
2022/09/09 00:37:54;;;;;;;1.88;0.52;;;;;21.80;100573.00;;;;5085144;28;20206;-80
2022/09/09 00:40:30;;;;;;;0.63;0.50;;;;;21.70;100578.00;;;;5090418;28;20210;-80
2022/09/09 00:43:15;;;;;;;0.88;0.55;;;;;21.70;100572.00;;;;5089324;28;20194;-80
2022/09/09 00:46:15;;;;;;;0.90;0.50;;;;;21.70;100566.00;;;;5085860;28;20197;-80
2022/09/09 00:48:53;;;;;;;0.55;0.45;;;;;21.70;100569.00;;;;5090535;28;20198;-80
2022/09/09 00:51:30;;;;;;;1.63;0.68;;;;;21.70;100571.00;;;;5085742;28;20195;-80
2022/09/09 00:54:10;;;;;;;2.00;1.00;;;;;21.60;100579.00;;;;5083313;28;20598;-80
2022/09/09 00:56:44;;;;;;;1.45;0.60;;;;;21.70;100573.00;;;;5074425;28;20280;-80
2022/09/09 00:59:25;;;;;;;0.63;0.63;;;;;21.60;100574.00;;;;5089632;28;20202;-80
2022/09/09 01:01:54;;;;;;;1.40;0.77;;;;;21.60;100579.00;;;;5090339;28;20228;-80
2022/09/09 01:04:30;;;;;;;0.68;0.45;;;;;21.60;100583.00;;;;5089863;28;20205;-79
2022/09/09 01:07:08;;;;;;;0.60;0.50;;;;;21.50;100588.00;;;;5089809;28;20679;-80
2022/09/09 01:09:46;;;;;;;2.17;0.73;;;;;21.50;100579.00;;;;5073496;28;20240;-80
2022/09/09 01:12:17;;;;;;;2.58;1.00;;;;;21.50;100574.00;;;;5087320;28;20201;-80
2022/09/09 01:14:48;;;;;;;1.38;0.50;;;;;21.50;100572.00;;;;5087248;28;20859;-80
2022/09/09 01:17:20;;;;;;;1.23;0.60;;;;;21.50;100568.00;;;;5089834;28;20198;-80
2022/09/09 01:19:58;;;;;;;1.73;0.70;;;;;21.40;100576.00;;;;5082259;28;20199;-80
2022/09/09 01:22:34;;;;;;;0.93;0.60;;;;;21.40;100565.00;;;;5090199;28;20198;-79
2022/09/09 01:25:27;;;;;;;1.80;0.65;;;;;21.40;100565.00;;;;5088152;28;20256;-80
2022/09/09 01:27:59;;;;;;;1.85;0.80;;;;;21.40;100565.00;;;;5089585;28;20205;-80
2022/09/09 01:30:28;;;;;;;1.15;0.57;;;;;21.40;100555.00;;;;5074375;28;20230;-80
2022/09/09 01:33:00;;;;;;;1.48;0.90;;;;;21.40;100550.00;;;;5087644;28;20253;-79
2022/09/09 01:35:38;;;;;;;2.08;0.65;;;;;21.40;100552.00;;;;5089324;28;20190;-80
2022/09/09 01:38:06;;;;;;;3.03;0.57;;;;;21.40;100554.00;;;;5089069;28;20241;-79
2022/09/09 01:40:34;;;;;;;1.90;0.85;;;;;21.40;100561.00;;;;5088944;28;20202;-77
2022/09/09 01:43:03;;;;;;;2.67;0.90;;;;;21.40;100554.00;;;;5088809;28;20215;-78
2022/09/09 01:45:31;;;;;;;1.42;0.77;;;;;21.40;100553.00;;;;5086588;28;21110;-78
2022/09/09 01:48:00;;;;;;;1.20;0.60;;;;;21.40;100557.00;;;;5088008;28;20194;-78
2022/09/09 01:50:27;;;;;;;1.13;0.95;;;;;21.30;100554.00;;;;5089083;28;20247;-78
2022/09/09 01:52:58;;;;;;;0.88;0.75;;;;;21.30;100559.00;;;;5087919;28;20213;-77
2022/09/09 01:55:31;;;;;;;0.90;0.70;;;;;21.20;100559.00;;;;5088280;28;20965;-77
2022/09/09 01:58:12;;;;;;;2.17;1.13;;;;;21.20;100561.00;;;;5089192;28;20205;-79
2022/09/09 02:00:49;;;;;;;3.13;1.02;;;;;21.20;100553.00;;;;5086807;28;20661;-79
2022/09/09 02:03:24;;;;;;;1.38;0.85;;;;;21.20;100544.00;;;;5087966;28;20209;-80
2022/09/09 02:06:00;;;;;;;1.77;1.10;;;;;21.20;100541.00;;;;5089423;28;20264;-80
2022/09/09 02:08:35;;;;;;;1.15;0.95;;;;;21.20;100538.00;;;;5088335;28;20221;-80
2022/09/09 02:11:07;;;;;;;1.30;0.90;;;;;21.20;100528.00;;;;5088483;28;20205;-80
2022/09/09 02:13:38;;;;;;;1.80;1.13;;;;;21.20;100526.00;;;;5089374;28;20245;-80
2022/09/09 02:16:09;;;;;;;3.80;1.10;;;;;21.10;100525.00;;;;5089336;28;20197;-80
2022/09/09 02:18:41;;;;;;;1.63;1.33;;;;;21.10;100526.00;;;;5086570;28;20199;-80
2022/09/09 02:21:11;;;;;;;1.30;1.20;;;;;21.10;100529.00;;;;5088201;28;20281;-80
2022/09/09 02:23:40;;;;;;;2.92;1.25;;;;;21.10;100539.00;;;;5086349;28;20572;-80
2022/09/09 02:26:10;;;;;;;1.48;1.05;;;;;21.10;100535.00;;;;5088109;28;20190;-80
2022/09/09 02:28:40;;;;;;;2.33;1.20;;;;;21.10;100534.00;;;;5086929;28;20230;-79
2022/09/09 02:31:07;;;;;;;2.00;1.15;;;;;21.10;100532.00;;;;5085473;28;20218;-80
2022/09/09 02:33:42;;;;;;;2.00;1.20;;;;;21.10;100539.00;;;;5087585;28;20218;-80
2022/09/09 02:36:12;;;;;;;1.77;1.00;;;;;21.10;100525.00;;;;5079713;28;20206;-79
2022/09/09 02:38:42;;;;;;;4.57;2.22;;;;;21.00;100521.00;;;;5082018;28;20209;-79
2022/09/09 02:41:10;;;;;;;2.25;1.33;;;;;21.00;100523.00;;;;5087435;28;20198;-79
2022/09/09 02:43:38;;;;;;;1.65;1.20;;;;;21.00;100530.00;;;;5085767;28;20198;-80
2022/09/09 02:46:19;;;;;;;2.83;1.20;;;;;21.00;100527.00;;;;5091932;28;20194;-80
2022/09/09 02:48:54;;;;;;;2.22;1.15;;;;;21.00;100523.00;;;;5077634;28;20660;-80
2022/09/09 02:51:30;;;;;;;2.03;1.17;;;;;20.90;100522.00;;;;5087728;28;20668;-79
2022/09/09 02:54:11;;;;;;;1.15;1.05;;;;;20.90;100525.00;;;;5087383;28;20229;-79
2022/09/09 02:56:42;;;;;;;2.40;1.42;;;;;20.90;100529.00;;;;5085720;28;20238;-79
2022/09/09 02:59:11;;;;;;;5.50;1.40;;;;;20.90;100524.00;;;;5085579;28;20205;-77
2022/09/09 03:01:39;;;;;;;2.95;1.00;;;;;20.90;100520.00;;;;5085085;28;20201;-77
2022/09/09 03:04:07;;;;;;;3.42;1.67;;;;;20.90;100526.00;;;;5087850;28;20241;-77
2022/09/09 03:06:35;;;;;;;1.60;1.27;;;;;20.90;100528.00;;;;5085349;28;20205;-77
2022/09/09 03:09:02;;;;;;;2.33;1.35;;;;;20.90;100525.00;;;;5085865;28;20209;-79
2022/09/09 03:11:30;;;;;;;3.42;1.38;;;;;20.90;100529.00;;;;5087327;28;20198;-79
2022/09/09 03:13:57;;;;;;;1.27;1.17;;;;;20.90;100525.00;;;;5086076;28;20232;-79
2022/09/09 03:16:26;;;;;;;1.92;1.67;;;;;20.90;100525.00;;;;5085943;28;20743;-79
2022/09/09 03:18:53;;;;;;;3.83;2.08;;;;;20.90;100522.00;;;;5086719;28;20206;-78
2022/09/09 03:21:20;;;;;;;4.00;2.00;;;;;20.90;100521.00;;;;5086057;28;20652;-79
2022/09/09 03:23:48;;;;;;;2.97;1.50;;;;;20.90;100518.00;;;;5087872;28;20204;-78
2022/09/09 03:26:15;;;;;;;1.73;1.42;;;;;20.90;100517.00;;;;5086068;28;20617;-79
2022/09/09 03:28:44;;;;;;;2.17;1.60;;;;;20.80;100517.00;;;;5086301;28;20233;-79
2022/09/09 03:31:12;;;;;;;3.55;1.20;;;;;20.80;100526.00;;;;5085316;28;20653;-78
2022/09/09 03:33:41;;;;;;;2.75;1.35;;;;;20.80;100519.00;;;;5087399;28;20222;-79
2022/09/09 03:36:09;;;;;;;3.92;1.80;;;;;20.80;100517.00;;;;5084696;28;20204;-79
2022/09/09 03:38:36;;;;;;;2.00;1.50;;;;;20.80;100522.00;;;;5086480;28;20190;-78
2022/09/09 03:41:06;;;;;;;4.93;1.45;;;;;20.80;100524.00;;;;5088071;28;20186;-79
2022/09/09 03:43:33;;;;;;;2.10;1.75;;;;;20.80;100530.00;;;;5086740;28;20684;-78
2022/09/09 03:46:00;;;;;;;3.20;1.52;;;;;20.80;100520.00;;;;5085869;28;20198;-79
2022/09/09 03:48:28;;;;;;;1.83;1.60;;;;;20.80;100513.00;;;;5076497;28;20202;-79
2022/09/09 03:51:00;;;;;;;3.13;1.77;;;;;20.70;100516.00;;;;5083212;28;20205;-79
2022/09/09 03:53:28;;;;;;;1.45;1.35;;;;;20.70;100513.00;;;;5086666;28;20198;-78
2022/09/09 03:55:59;;;;;;;2.20;1.67;;;;;20.70;100510.00;;;;5083864;28;20210;-78
2022/09/09 03:58:28;;;;;;;3.38;1.50;;;;;20.70;100517.00;;;;5087180;28;20198;-79
2022/09/09 04:00:57;;;;;;;6.43;1.73;;;;;20.70;100513.00;;;;5086512;28;20206;-78
2022/09/09 04:03:25;;;;;;;5.07;1.85;;;;;20.70;100516.00;;;;5069102;28;20672;-78
2022/09/09 04:05:53;;;;;;;1.52;1.42;;;;;20.70;100510.00;;;;5073290;28;20230;-79
2022/09/09 04:08:25;;;;;;;3.53;2.47;;;;;20.70;100508.00;;;;5087360;28;20206;-78
2022/09/09 04:10:53;;;;;;;2.85;1.95;;;;;20.70;100502.00;;;;5086407;28;20194;-78
2022/09/09 04:13:21;;;;;;;1.98;1.77;;;;;20.60;100505.00;;;;5089268;28;20236;-78
2022/09/09 04:15:53;;;;;;;3.30;2.05;;;;;20.60;100509.00;;;;5086648;28;20747;-78
2022/09/09 04:18:21;;;;;;;4.60;2.13;;;;;20.70;100503.00;;;;5085221;28;20280;-79
2022/09/09 04:20:48;;;;;;;2.85;1.58;;;;;20.70;100500.00;;;;5091566;28;20201;-78
2022/09/09 04:23:16;;;;;;;2.05;1.48;;;;;20.70;100503.00;;;;5091165;28;20206;-78
2022/09/09 04:25:49;;;;;;;1.92;1.63;;;;;20.60;100501.00;;;;5090655;28;20209;-78
2022/09/09 04:28:17;;;;;;;2.08;1.67;;;;;20.70;100498.00;;;;5090853;28;20202;-78
2022/09/09 04:30:45;;;;;;;1.95;1.48;;;;;20.70;100498.00;;;;5088038;28;20230;-78
2022/09/09 04:33:14;;;;;;;2.15;1.85;;;;;20.70;100503.00;;;;5070771;28;20203;-79
2022/09/09 04:35:45;;;;;;;1.52;1.42;;;;;20.60;100491.00;;;;5081242;28;20222;-78
2022/09/09 04:38:13;;;;;;;3.95;1.45;;;;;20.70;100489.00;;;;5087339;28;20206;-78
2022/09/09 04:40:42;;;;;;;2.15;1.58;;;;;20.70;100489.00;;;;5086463;28;20197;-78
2022/09/09 04:43:11;;;;;;;2.00;1.75;;;;;20.70;100487.00;;;;5089716;28;20198;-78
2022/09/09 04:45:40;;;;;;;5.88;1.55;;;;;20.70;100478.00;;;;5090848;28;20190;-78
2022/09/09 04:48:07;;;;;;;2.55;1.65;;;;;20.70;100481.00;;;;5090619;28;20586;-79
2022/09/09 04:50:35;;;;;;;4.85;1.98;;;;;20.70;100476.00;;;;5088860;28;20194;-79
2022/09/09 04:53:04;;;;;;;2.35;1.63;;;;;20.70;100476.00;;;;5089370;28;20197;-78
2022/09/09 04:55:32;;;;;;;2.85;1.73;;;;;20.70;100482.00;;;;5089720;28;20226;-79
2022/09/09 04:58:03;;;;;;;2.17;1.67;;;;;20.70;100476.00;;;;5086389;28;20676;-79
2022/09/09 05:00:32;;;;;;;4.55;1.50;;;;;20.70;100484.00;;;;5086361;28;20190;-78
2022/09/09 05:03:02;;;;;;;2.63;1.55;;;;;20.70;100478.00;;;;5089058;28;20194;-79
2022/09/09 05:05:30;;;;;;;2.33;1.55;;;;;20.70;100482.00;;;;5088924;28;20198;-79
2022/09/09 05:08:03;;;;;;;2.65;1.83;;;;;20.60;100486.00;;;;5089616;28;20197;-79
2022/09/09 05:10:30;;;;;;;2.80;1.33;;;;;20.70;100486.00;;;;5085760;28;20221;-79
2022/09/09 05:12:58;;;;;;;2.97;1.80;;;;;20.70;100485.00;;;;5088176;28;20740;-78
2022/09/09 05:15:25;;;;;;;5.43;1.58;;;;;20.70;100483.00;;;;5083730;28;20214;-79
2022/09/09 05:17:57;;;;;;;2.53;1.25;;;;;20.70;100481.00;;;;5088244;28;20742;-79
2022/09/09 05:20:24;;;;;;;2.83;1.58;;;;;20.70;100477.00;;;;5071648;28;20222;-79
2022/09/09 05:22:54;;;;;;;3.33;1.30;;;;;20.60;100478.00;;;;5088809;28;20205;-79
2022/09/09 05:25:22;;;;;;;4.82;1.52;;;;;20.70;100474.00;;;;5088438;28;20234;-80
2022/09/09 05:27:50;;;;;;;1.60;1.20;;;;;20.70;100476.00;;;;5088810;28;20803;-80
2022/09/09 05:30:18;;;;;;;3.92;1.60;;;;;20.70;100483.00;;;;5087641;28;20276;-81
2022/09/09 05:32:48;;;;;;;1.83;1.20;;;;;20.70;100470.00;;;;5087862;28;20202;-81
2022/09/09 05:35:18;;;;;;;3.13;1.52;;;;;20.70;100476.00;;;;5087166;28;20261;-81
2022/09/09 05:37:48;;;;;;;1.73;1.15;;;;;20.70;100471.00;;;;5089011;28;20306;-81
2022/09/09 05:40:15;;;;;;;5.80;1.23;;;;;20.70;100475.00;;;;5077955;28;20205;-81
2022/09/09 05:42:43;;;;;;;1.55;1.13;;;;;20.70;100463.00;;;;5086968;28;20194;-81
2022/09/09 05:45:11;;;;;;;4.35;1.55;;;;;20.70;100465.00;;;;5088358;28;20201;-81
2022/09/09 05:47:38;;;;;;;1.30;0.85;;;;;20.70;100459.00;;;;5084379;28;20261;-80
2022/09/09 05:50:07;;;;;;;4.40;1.33;;;;;20.70;100468.00;;;;5087952;28;20680;-80
2022/09/09 05:52:36;;;;;;;1.45;1.10;;;;;20.80;100476.00;;;;5070678;28;20199;-80
2022/09/09 05:55:04;;;;;;;1.27;0.95;;;;;20.80;100474.00;;;;5088340;28;20222;-80
2022/09/09 05:57:31;;;;;;;3.10;1.02;;;;;20.80;100481.00;;;;5086233;28;20198;-79
2022/09/09 05:59:59;;;;;;;3.20;1.13;;;;;20.80;100479.00;;;;5087570;28;20577;-82
2022/09/09 06:02:26;;;;;;;8.18;1.50;;;;;20.90;100484.00;;;;5088147;28;20198;-80
2022/09/09 06:04:55;;;;;;;1.63;1.05;;;;;20.90;100477.00;;;;5088177;28;20198;-82
2022/09/09 06:07:22;;;;;;;2.65;1.00;;;;;21.00;100482.00;;;;5084941;28;20302;-82
2022/09/09 06:09:51;;;;;;;3.42;1.27;;;;;21.00;100482.00;;;;5085315;28;20579;-79
2022/09/09 06:12:19;;;;;;;3.97;1.42;;;;;21.10;100486.00;;;;5085237;28;20194;-77
2022/09/09 06:14:46;;;;;;;1.00;0.70;;;;;21.10;100484.00;;;;5089110;28;20230;-78
2022/09/09 06:17:13;;;;;;;1.50;1.00;;;;;21.10;100491.00;;;;5088539;28;20206;-77
2022/09/09 06:19:40;;;;;;;1.58;1.02;;;;;21.20;100484.00;;;;5075378;28;20197;-77
2022/09/09 06:22:12;;;;;;;6.38;1.17;;;;;21.20;100478.00;;;;5082322;28;20194;-78
2022/09/09 06:24:39;;;;;;;4.25;1.27;;;;;21.30;100482.00;;;;5088234;28;20239;-78
2022/09/09 06:27:08;;;;;;;3.50;0.93;;;;;21.30;100488.00;;;;5087002;28;20198;-79
2022/09/09 06:29:35;;;;;;;2.03;0.90;;;;;21.40;100482.00;;;;5080354;28;20214;-79
2022/09/09 06:32:08;;;;;;;4.05;1.17;;;;;21.40;100477.00;;;;5086046;28;20209;-80
2022/09/09 06:34:36;;;;;;;3.22;0.98;;;;;21.50;100480.00;;;;5081340;28;20754;-80
2022/09/09 06:37:04;;;;;;;3.60;0.93;;;;;21.50;100477.00;;;;5087319;28;20579;-79
2022/09/09 06:39:31;;;;;;;2.85;1.20;;;;;21.60;100480.00;;;;5076702;28;20289;-80
2022/09/09 06:41:59;;;;;;;1.75;1.23;;;;;21.60;100473.00;;;;5086153;28;20218;-79
2022/09/09 06:44:28;;;;;;;1.70;0.68;;;;;21.70;100473.00;;;;5088232;28;20198;-79
2022/09/09 06:46:55;;;;;;;2.70;1.13;;;;;21.70;100473.00;;;;5087302;28;20198;-80
2022/09/09 06:49:23;;;;;;;3.58;1.05;;;;;21.70;100472.00;;;;5087834;28;20209;-80
2022/09/09 06:51:51;;;;;;;1.63;1.00;;;;;21.70;100466.00;;;;5072713;28;20199;-79
2022/09/09 06:54:19;;;;;;;3.47;1.15;;;;;21.80;100464.00;;;;5086880;28;20197;-79
2022/09/09 06:56:47;;;;;;;2.90;0.95;;;;;21.80;100470.00;;;;5088206;28;20202;-82
2022/09/09 06:59:14;;;;;;;5.00;1.20;;;;;21.90;100472.00;;;;5085268;28;20198;-80
2022/09/09 07:01:44;;;;;;;1.85;0.70;;;;;21.90;100474.00;;;;5074834;28;20206;-81
2022/09/09 07:04:12;;;;;;;2.03;0.82;;;;;22.00;100464.00;;;;5085300;28;20190;-82
2022/09/09 07:06:42;;;;;;;2.30;0.85;;;;;22.00;100466.00;;;;5084395;28;20236;-81
2022/09/09 07:09:11;;;;;;;4.78;1.20;;;;;22.00;100471.00;;;;5081966;28;20763;-80
2022/09/09 07:11:41;;;;;;;2.30;1.00;;;;;22.10;100464.00;;;;5085790;28;20337;-81
2022/09/09 07:14:09;;;;;;;3.40;1.23;;;;;22.10;100460.00;;;;5085694;28;20190;-79
2022/09/09 07:16:37;;;;;;;3.80;0.82;;;;;22.10;100463.00;;;;5086245;28;20874;-79
2022/09/09 07:19:06;;;;;;;4.00;1.00;;;;;22.10;100463.00;;;;5087413;28;20198;-79
2022/09/09 07:21:34;;;;;;;5.15;1.60;;;;;22.10;100465.00;;;;5086308;28;20731;-79
2022/09/09 07:24:04;;;;;;;3.15;0.95;;;;;22.20;100468.00;;;;5086870;28;20214;-79
2022/09/09 07:26:32;;;;;;;2.45;1.00;;;;;22.20;100461.00;;;;5079089;28;20206;-80
2022/09/09 07:29:00;;;;;;;3.67;1.27;;;;;22.20;100467.00;;;;5083109;28;20221;-81
2022/09/09 07:31:30;;;;;;;2.22;0.88;;;;;22.20;100461.00;;;;5084829;28;20321;-79
2022/09/09 07:33:58;;;;;;;2.90;1.10;;;;;22.20;100464.00;;;;5086852;28;20198;-79
2022/09/09 07:36:28;;;;;;;6.15;1.80;;;;;22.20;100461.00;;;;5080266;28;20217;-80
2022/09/09 07:39:00;;;;;;;3.35;1.02;;;;;22.20;100463.00;;;;5085666;28;20209;-81
2022/09/09 07:41:30;;;;;;;5.03;1.90;;;;;22.30;100461.00;;;;5076527;28;20194;-78
2022/09/09 07:43:58;;;;;;;4.03;1.23;;;;;22.40;100470.00;;;;5086546;28;20230;-79
2022/09/09 07:46:27;;;;;;;8.90;1.30;;;;;22.40;100474.00;;;;5090556;28;20694;-83
2022/09/09 07:48:56;;;;;;;3.83;1.60;;;;;22.40;100473.00;;;;5092385;28;20202;-82
2022/09/09 07:51:26;;;;;;;4.07;1.38;;;;;22.50;100486.00;;;;5092351;28;20190;-83
2022/09/09 07:53:55;;;;;;;2.45;0.95;;;;;22.50;100483.00;;;;5091318;28;20602;-82
2022/09/09 07:56:23;;;;;;;7.60;1.33;;;;;22.50;100482.00;;;;5078895;28;20233;-82
2022/09/09 07:58:52;;;;;;;4.47;1.10;;;;;22.50;100486.00;;;;5093496;28;20274;-81
2022/09/09 08:01:21;;;;;;;2.15;1.25;;;;;22.50;100496.00;;;;5091231;28;20652;-83
2022/09/09 08:03:54;;;;;;;1.67;1.05;;;;;22.50;100492.00;;;;5091514;28;20275;-84
2022/09/09 08:06:21;;;;;;;6.53;1.52;;;;;22.60;100488.00;;;;5089170;28;20283;-82
2022/09/09 08:08:54;;;;;;;7.28;1.35;;;;;22.50;100486.00;;;;5090568;28;20200;-83
2022/09/09 08:11:23;;;;;;;3.00;1.15;;;;;22.60;100494.00;;;;5091369;28;20198;-83
2022/09/09 08:13:52;;;;;;;3.30;1.20;;;;;22.60;100493.00;;;;5090870;28;20668;-82
2022/09/09 08:16:22;;;;;;;2.13;0.90;;;;;22.60;100489.00;;;;5090141;28;20229;-82
2022/09/09 08:18:51;;;;;;;1.65;0.90;;;;;22.60;100485.00;;;;5093289;28;20206;-83
2022/09/09 08:21:21;;;;;;;4.30;1.58;;;;;22.60;100497.00;;;;5090540;28;20623;-83
2022/09/09 08:23:51;;;;;;;1.77;0.60;;;;;22.60;100496.00;;;;5090051;28;20206;-83
2022/09/09 08:26:23;;;;;;;1.63;0.98;;;;;22.60;100498.00;;;;5091140;28;20688;-83
2022/09/09 08:28:52;;;;;;;2.42;1.13;;;;;22.60;100504.00;;;;5090953;28;20194;-81
2022/09/09 08:31:21;;;;;;;2.72;1.00;;;;;22.60;100503.00;;;;5090931;28;20248;-84
2022/09/09 08:33:49;;;;;;;1.75;0.63;;;;;22.60;100494.00;;;;5090175;28;20221;-82
2022/09/09 08:36:18;;;;;;;2.80;1.30;;;;;22.50;100495.00;;;;5081440;28;20225;-83
2022/09/09 08:38:50;;;;;;;4.95;0.98;;;;;22.50;100497.00;;;;5090925;28;20206;-82
2022/09/09 08:41:36;;;;;;;1.35;0.60;;;;;22.40;100502.00;;;;5090703;28;20302;-83
2022/09/09 08:44:10;;;;;;;1.73;0.90;;;;;22.50;100502.00;;;;5090410;28;20198;-81
2022/09/09 08:46:51;;;;;;;3.25;0.80;;;;;22.50;100503.00;;;;5089297;28;21104;-80
2022/09/09 08:49:31;;;;;;;3.13;0.90;;;;;22.50;100507.00;;;;5090458;28;20213;-82
2022/09/09 08:51:59;;;;;;;4.93;0.82;;;;;22.50;100501.00;;;;5090349;28;20671;-80
2022/09/09 08:54:33;;;;;;;2.35;0.98;;;;;22.50;100506.00;;;;5090714;28;20625;-82
2022/09/09 08:57:01;;;;;;;2.10;0.70;;;;;22.60;100506.00;;;;5087636;28;20221;-82
2022/09/09 08:59:29;;;;;;;5.10;1.10;;;;;22.60;100504.00;;;;5087874;28;20198;-82
2022/09/09 09:02:11;;;;;;;5.22;0.95;;;;;22.50;100505.00;;;;5089952;28;20198;-82
2022/09/09 09:04:55;;;;;;;3.90;1.13;;;;;22.50;100508.00;;;;5077738;28;20201;-82
2022/09/09 09:07:31;;;;;;;3.88;1.20;;;;;22.50;100505.00;;;;5084220;28;20575;-82
2022/09/09 09:10:10;;;;;;;2.25;0.80;;;;;22.50;100511.00;;;;5089497;28;20283;-83
2022/09/09 09:12:42;;;;;;;2.58;1.17;;;;;22.50;100512.00;;;;5086557;28;20190;-82
2022/09/09 09:15:16;;;;;;;1.23;0.63;;;;;22.50;100515.00;;;;5090040;28;20198;-83
2022/09/09 09:17:44;;;;;;;2.38;0.85;;;;;22.60;100512.00;;;;5090154;28;20209;-82
2022/09/09 09:20:14;;;;;;;1.85;1.00;;;;;22.60;100513.00;;;;5087954;28;21040;-83
2022/09/09 09:22:48;;;;;;;2.58;1.17;;;;;22.60;100517.00;;;;5087757;28;20195;-82
2022/09/09 09:25:20;;;;;;;2.53;1.00;;;;;22.60;100510.00;;;;5087304;28;20205;-81
2022/09/09 09:27:58;;;;;;;2.97;0.77;;;;;22.60;100515.00;;;;5085642;28;20205;-80
2022/09/09 09:30:27;;;;;;;4.03;1.13;;;;;22.70;100519.00;;;;5089118;28;20283;-81
2022/09/09 09:32:57;;;;;;;2.80;0.95;;;;;22.70;100516.00;;;;5089781;28;20198;-79
2022/09/09 09:35:24;;;;;;;5.13;1.17;;;;;22.70;100518.00;;;;5086397;28;20257;-82
2022/09/09 09:37:52;;;;;;;4.20;0.93;;;;;22.80;100512.00;;;;5089760;28;20195;-83
2022/09/09 09:40:22;;;;;;;3.40;0.82;;;;;22.70;100516.00;;;;5089365;28;20656;-83
2022/09/09 09:42:54;;;;;;;1.90;0.80;;;;;22.70;100522.00;;;;5089817;28;20201;-81
2022/09/09 09:45:31;;;;;;;3.70;1.20;;;;;22.70;100520.00;;;;5088109;28;20194;-82
2022/09/09 09:48:03;;;;;;;5.32;1.20;;;;;22.70;100519.00;;;;5088470;28;20208;-82
2022/09/09 09:50:32;;;;;;;3.25;0.80;;;;;22.80;100523.00;;;;5087335;28;20736;-82
2022/09/09 09:53:03;;;;;;;4.45;1.05;;;;;22.80;100523.00;;;;5089376;28;20259;-82
2022/09/09 09:55:33;;;;;;;3.45;1.20;;;;;22.80;100510.00;;;;5089058;28;20240;-83
2022/09/09 09:58:07;;;;;;;2.20;0.70;;;;;22.80;100515.00;;;;5089508;28;20206;-82
2022/09/09 10:00:36;;;;;;;4.38;0.70;;;;;22.90;100518.00;;;;5085918;28;20221;-81
2022/09/09 10:03:13;;;;;;;3.28;1.00;;;;;22.90;100516.00;;;;5088832;28;20199;-81
2022/09/09 10:05:48;;;;;;;0.95;0.52;;;;;22.80;100517.00;;;;5089125;28;20578;-81
2022/09/09 10:08:17;;;;;;;2.30;0.90;;;;;22.90;100512.00;;;;5088726;28;20208;-81
2022/09/09 10:10:57;;;;;;;3.10;1.02;;;;;22.80;100518.00;;;;5088815;28;20190;-81
2022/09/09 10:13:32;;;;;;;4.82;1.08;;;;;22.90;100515.00;;;;5089235;28;20226;-82
2022/09/09 10:16:11;;;;;;;2.30;0.85;;;;;22.80;100519.00;;;;5088340;28;20275;-81
2022/09/09 10:18:59;;;;;;;2.75;0.93;;;;;22.80;100522.00;;;;5077702;28;20198;-82
2022/09/09 10:21:45;;;;;;;3.20;1.00;;;;;22.90;100520.00;;;;5088182;28;20844;-81
2022/09/09 10:24:37;;;;;;;2.35;0.60;;;;;22.80;100529.00;;;;5088606;28;20209;-81
2022/09/09 10:27:16;;;;;;;2.97;0.90;;;;;22.90;100526.00;;;;5091160;28;20206;-81
2022/09/09 10:30:08;;;;;;;3.88;1.05;;;;;22.80;100532.00;;;;5081749;27;1492425;-81
2022/09/09 10:32:43;;;;;;;2.28;0.70;;;;;22.90;100531.00;;;;5097883;28;20283;-80
2022/09/09 10:35:18;;;;;;;5.40;1.17;;;;;22.90;100533.00;;;;5095530;28;20219;-80
2022/09/09 10:38:14;;;;;;;2.28;0.80;;;;;22.80;100533.00;;;;5087862;28;20213;-80
2022/09/09 10:40:59;;;;;;;1.55;0.77;;;;;22.90;100536.00;;;;5085549;28;21200;-82
2022/09/09 10:43:40;;;;;;;4.25;0.95;;;;;22.90;100525.00;;;;5090983;28;20205;-79
2022/09/09 10:46:15;;;;;;;3.92;0.90;;;;;22.90;100526.00;;;;5098999;28;20281;-79
2022/09/09 10:49:00;;;;;;;2.00;0.93;;;;;22.90;100521.00;;;;5098429;28;20247;-78
2022/09/09 10:51:36;;;;;;;1.65;0.75;;;;;22.90;100522.00;;;;5104928;28;20236;-78
2022/09/09 10:54:16;;;;;;;2.53;0.80;;;;;23.00;100520.00;;;;5105083;28;20198;-78
2022/09/09 10:56:45;;;;;;;1.88;0.98;;;;;23.10;100512.00;;;;5097994;28;20668;-78
2022/09/09 10:59:20;;;;;;;3.03;1.00;;;;;23.20;100519.00;;;;5095323;28;20217;-78
2022/09/09 11:01:54;;;;;;;3.00;0.85;;;;;23.20;100518.00;;;;5087783;28;20197;-79
2022/09/09 11:04:26;;;;;;;2.00;0.90;;;;;23.30;100511.00;;;;5087051;28;20198;-78
2022/09/09 11:06:56;;;;;;;4.47;1.40;;;;;23.30;100509.00;;;;5094558;28;20198;-78
2022/09/09 11:09:29;;;;;;;2.70;1.00;;;;;23.30;100502.00;;;;5092968;28;20229;-79
2022/09/09 11:11:58;;;;;;;6.70;1.95;;;;;23.40;100511.00;;;;5087752;28;20199;-78
2022/09/09 11:14:33;;;;;;;4.85;1.30;;;;;23.40;100503.00;;;;5091757;28;20203;-79
2022/09/09 11:17:05;;;;;;;2.40;1.10;;;;;23.40;100509.00;;;;5092482;28;20193;-78
2022/09/09 11:19:35;;;;;;;3.33;1.15;;;;;23.40;100514.00;;;;5091579;28;20202;-78
2022/09/09 11:22:06;;;;;;;4.47;0.85;;;;;23.40;100505.00;;;;5094149;28;20205;-78
2022/09/09 11:24:40;;;;;;;4.45;0.93;;;;;23.40;100510.00;;;;5092151;28;20191;-79
2022/09/09 11:27:12;;;;;;;3.08;0.82;;;;;23.40;100512.00;;;;5089066;28;20198;-79
2022/09/09 11:30:12;;;;;;;3.60;0.98;;;;;23.40;100503.00;;;;5103707;28;20264;-78
2022/09/09 11:32:55;;;;;;;6.03;1.02;;;;;23.40;100503.00;;;;5083718;28;20214;-79
2022/09/09 11:35:34;;;;;;;2.42;1.08;;;;;23.40;100496.00;;;;5090137;28;20198;-79
2022/09/09 11:38:17;;;;;;;3.13;1.52;;;;;23.40;100500.00;;;;5087029;28;20213;-80
2022/09/09 11:40:46;;;;;;;4.05;1.13;;;;;23.50;100507.00;;;;5093370;28;20286;-79
2022/09/09 11:43:17;;;;;;;2.60;0.82;;;;;23.40;100503.00;;;;5092051;28;20264;-80
2022/09/09 11:45:51;;;;;;;2.50;1.02;;;;;23.40;100503.00;;;;5095797;28;20204;-80
2022/09/09 11:48:31;;;;;;;1.92;0.80;;;;;23.30;100501.00;;;;5095821;28;20225;-80
2022/09/09 11:51:05;;;;;;;2.55;1.23;;;;;23.40;100500.00;;;;5078231;28;20298;-80
2022/09/09 11:53:33;;;;;;;2.30;0.70;;;;;23.40;100493.00;;;;5074981;28;20214;-81
2022/09/09 11:56:28;;;;;;;3.35;1.20;;;;;23.30;100506.00;;;;5082814;28;20242;-80
2022/09/09 11:58:59;;;;;;;1.45;0.95;;;;;23.40;100498.00;;;;5072239;28;20194;-79
2022/09/09 12:01:38;;;;;;;2.45;1.33;;;;;23.30;100505.00;;;;5074986;28;20195;-79
2022/09/09 12:04:39;;;;;;;2.00;0.80;;;;;23.20;100509.00;;;;5084352;28;20217;-79
2022/09/09 12:07:29;;;;;;;2.42;0.80;;;;;23.20;100497.00;;;;5028726;28;20231;-79
2022/09/09 12:10:00;;;;;;;2.92;0.80;;;;;23.30;100504.00;;;;5070520;28;20223;-78
2022/09/09 12:12:33;;;;;;;1.65;0.70;;;;;23.30;100503.00;;;;5089737;28;20660;-78
2022/09/09 12:15:25;;;;;;;2.53;0.95;;;;;23.20;100505.00;;;;5091161;28;20198;-79
2022/09/09 12:17:54;;;;;;;3.75;0.70;;;;;23.30;100512.00;;;;5070481;28;20195;-80
2022/09/09 12:20:27;;;;;;;2.92;0.88;;;;;23.20;100507.00;;;;5071446;28;20218;-79
2022/09/09 12:23:05;;;;;;;4.95;1.27;;;;;23.20;100505.00;;;;5070991;28;20199;-79
2022/09/09 12:25:42;;;;;;;2.55;0.90;;;;;23.20;100510.00;;;;5089939;28;20201;-78
2022/09/09 12:28:16;;;;;;;2.08;1.00;;;;;23.20;100498.00;;;;5070450;28;20206;-78
2022/09/09 12:30:50;;;;;;;1.98;1.02;;;;;23.20;100495.00;;;;5074956;28;20226;-78
2022/09/09 12:33:19;;;;;;;1.75;0.95;;;;;23.30;100508.00;;;;5077870;28;20226;-80